Flugplatz Buckeburg Airport

Bericht für ETHB

vom 14.08. um 07:20 UTC

Wind 3 kt aus 300°

Sichtweite 10 km oder mehr

gering bewölkt in 1500 ft

aufgelockert bewölkt in 3500 ft

aufgebrochene Bewölkung in 10000 ft

Temperatur 22.0°C

Taupunkt 19.0°C

Luftfeuchtigkeit 83%

Luftdruck 1012 hPa

ETHB 140720Z 30003KT 9999 FEW015 SCT035 BKN100 22/19 Q1012 BLACKBLU BLU

Prognose für ETHB

vom 14.08. um 07:08 UTC

Zwischen 08:00 UTC und 17:00 UTC

Wind 5 kt aus 260°

Sichtweite 10 km oder mehr

keine signifikanten Wettererscheinungen

aufgelockert bewölkt in 3000 ft

aufgebrochene Bewölkung in 8000 ft


Zwischen 08:00 UTC und 17:00 UTC mit einer Wahrscheinlichkeit von 30%

variable Windrichtung mit 15 kt in Böen 30 kt

Sichtweite 2000 m

Code: TSRA

aufgelockert bewölkt in 800 ft

aufgebrochene Bewölkung in 3000 ft

TAF ETHB 140708Z 1408/1417 26005KT 9999 NSW SCT030 BKN080 PROB30 1408/1417 VRB15G30KT 2000 TSRA SCT008 BKN030CB
Impressum